Time;durP1;ratioP1;P1;durP2;ratioP2;P2;SDS_P1;SDS_P2;PMS_P1;PMS_P2;Temp;Humidity;BMP_temperature;BMP_pressure;BME280_temperature;BME280_humidity;BME280_pressure;Samples;Min_cycle;Max_cycle;Signal;HPM_P1;HPM_P2
2023/03/03 04:00:42;;;;;;;3.95;2.78;;;16.40;46.60;;;;;;5889047;23;45902;-59
2023/03/03 04:03:08;;;;;;;4.68;2.90;;;16.40;46.50;;;;;;4878240;28;45200;-60
2023/03/03 04:05:33;;;;;;;3.90;2.80;;;16.40;46.50;;;;;;4919207;28;45165;-61
2023/03/03 04:07:59;;;;;;;4.65;3.20;;;16.40;46.50;;;;;;4926680;28;46717;-61
2023/03/03 04:10:25;;;;;;;4.03;2.97;;;16.40;46.50;;;;;;4936176;28;44896;-61
2023/03/03 04:12:50;;;;;;;4.20;3.05;;;16.30;46.50;;;;;;4919873;28;45257;-60
2023/03/03 04:15:16;;;;;;;4.60;3.08;;;16.40;46.50;;;;;;4908143;28;45248;-61
2023/03/03 04:17:42;;;;;;;4.72;3.35;;;16.30;46.50;;;;;;4937512;28;46398;-61
2023/03/03 04:20:09;;;;;;;3.88;2.75;;;16.30;46.50;;;;;;4938078;28;45160;-62
2023/03/03 04:22:35;;;;;;;4.07;2.85;;;16.30;46.50;;;;;;4943843;28;45315;-62
2023/03/03 04:25:03;;;;;;;3.92;2.80;;;16.30;46.60;;;;;;4949268;28;45544;-61
2023/03/03 04:27:30;;;;;;;4.95;2.92;;;16.30;46.60;;;;;;4920511;28;46471;-61
2023/03/03 04:29:56;;;;;;;3.58;2.70;;;16.30;46.60;;;;;;4929813;28;45274;-62
2023/03/03 04:32:22;;;;;;;3.42;2.42;;;16.30;46.60;;;;;;4924639;28;45331;-61
2023/03/03 04:34:48;;;;;;;3.35;2.83;;;16.20;46.60;;;;;;4956928;28;44956;-61
2023/03/03 04:37:14;;;;;;;4.80;2.92;;;16.30;46.60;;;;;;4907350;28;46118;-61
2023/03/03 04:39:39;;;;;;;5.38;2.97;;;16.20;46.60;;;;;;4936378;28;45790;-61
2023/03/03 04:42:05;;;;;;;3.70;2.63;;;16.20;46.60;;;;;;4939769;28;44678;-62
2023/03/03 04:44:30;;;;;;;4.20;3.10;;;16.20;46.60;;;;;;4932296;28;45181;-62
2023/03/03 04:46:56;;;;;;;4.65;3.20;;;16.20;46.60;;;;;;4921626;28;45250;-61
2023/03/03 04:49:21;;;;;;;4.28;3.10;;;16.20;46.60;;;;;;4935288;28;46127;-61
2023/03/03 04:51:47;;;;;;;3.55;2.50;;;16.20;46.60;;;;;;4935570;28;45062;-60
2023/03/03 04:54:13;;;;;;;4.18;2.97;;;16.20;46.70;;;;;;4923381;28;44729;-60
2023/03/03 04:56:38;;;;;;;4.28;3.17;;;16.20;46.70;;;;;;4954361;28;45430;-60
2023/03/03 04:59:04;;;;;;;4.53;2.92;;;16.10;46.60;;;;;;4940142;28;45469;-60
2023/03/03 05:01:30;;;;;;;3.90;3.10;;;16.10;46.60;;;;;;4892972;28;45225;-60
2023/03/03 05:03:55;;;;;;;4.18;2.95;;;16.10;46.70;;;;;;4938766;28;45425;-60
2023/03/03 05:06:21;;;;;;;4.43;3.03;;;16.10;46.70;;;;;;4937651;28;47098;-60
2023/03/03 05:08:46;;;;;;;3.85;2.85;;;16.10;46.70;;;;;;4957309;28;45166;-61
2023/03/03 05:11:12;;;;;;;4.13;3.05;;;16.10;46.70;;;;;;4935743;28;45318;-60
2023/03/03 05:13:38;;;;;;;4.35;2.95;;;16.10;46.70;;;;;;4934583;28;48757;-60
2023/03/03 05:16:04;;;;;;;4.43;2.92;;;16.10;46.80;;;;;;4933494;28;45443;-60
2023/03/03 05:18:30;;;;;;;4.90;3.30;;;16.10;46.70;;;;;;4932202;28;45011;-60
2023/03/03 05:20:56;;;;;;;3.58;2.85;;;16.00;46.70;;;;;;4945182;28;45166;-62
2023/03/03 05:23:21;;;;;;;3.75;2.85;;;16.00;46.70;;;;;;4941815;28;45000;-60
2023/03/03 05:25:47;;;;;;;3.50;2.78;;;16.00;46.70;;;;;;4929795;28;45226;-61
2023/03/03 05:28:13;;;;;;;4.07;3.30;;;16.00;46.70;;;;;;4939941;28;45304;-61
2023/03/03 05:30:39;;;;;;;4.35;3.20;;;16.00;46.70;;;;;;4951397;28;45348;-62
2023/03/03 05:33:05;;;;;;;4.35;3.10;;;16.00;46.80;;;;;;4945823;28;45040;-61
2023/03/03 05:35:30;;;;;;;5.00;2.90;;;16.00;46.70;;;;;;4940686;28;45370;-62
2023/03/03 05:37:57;;;;;;;4.50;3.30;;;16.00;46.80;;;;;;4954937;28;45722;-62
2023/03/03 05:40:26;;;;;;;5.57;3.05;;;16.00;46.80;;;;;;4925449;28;45085;-61
2023/03/03 05:42:51;;;;;;;4.65;3.28;;;16.00;46.80;;;;;;4922670;28;45219;-62
2023/03/03 05:45:20;;;;;;;4.55;3.00;;;16.00;46.70;;;;;;4906433;28;45057;-61
2023/03/03 05:47:46;;;;;;;4.68;3.20;;;15.90;46.70;;;;;;4925789;28;45078;-61
2023/03/03 05:50:12;;;;;;;4.15;3.05;;;15.90;46.70;;;;;;4917142;28;44967;-60
2023/03/03 05:52:38;;;;;;;5.63;3.25;;;15.90;46.70;;;;;;4916661;28;45098;-60
2023/03/03 05:55:04;;;;;;;4.90;3.28;;;15.90;46.80;;;;;;4941103;28;46126;-61
2023/03/03 05:57:30;;;;;;;4.45;2.85;;;15.90;46.80;;;;;;4943944;28;45025;-61
2023/03/03 05:59:56;;;;;;;5.05;3.13;;;15.90;46.80;;;;;;4910200;28;45156;-61
2023/03/03 06:02:21;;;;;;;3.63;2.80;;;15.90;46.80;;;;;;4944522;28;45154;-61
2023/03/03 06:04:47;;;;;;;4.20;3.13;;;15.90;46.80;;;;;;4953137;28;48739;-61
2023/03/03 06:07:12;;;;;;;5.15;3.08;;;15.90;46.80;;;;;;4959158;28;44939;-61
2023/03/03 06:09:38;;;;;;;4.20;3.38;;;15.90;46.80;;;;;;4941805;28;45573;-61
2023/03/03 06:12:04;;;;;;;4.40;3.15;;;15.90;47.50;;;;;;4956037;28;45033;-61
2023/03/03 06:14:30;;;;;;;3.28;2.70;;;15.80;46.90;;;;;;4955478;28;45513;-61
2023/03/03 06:16:56;;;;;;;4.60;3.15;;;15.80;46.80;;;;;;4942795;28;44959;-62
2023/03/03 06:19:22;;;;;;;4.97;3.15;;;15.80;46.80;;;;;;4941269;28;44789;-60
2023/03/03 06:21:48;;;;;;;4.20;3.13;;;15.80;46.80;;;;;;4955115;28;45582;-59
2023/03/03 06:24:13;;;;;;;3.90;2.80;;;15.80;46.80;;;;;;4944483;28;45488;-61
2023/03/03 06:26:39;;;;;;;3.95;3.05;;;15.80;46.80;;;;;;4957436;28;45051;-61
2023/03/03 06:29:05;;;;;;;5.10;3.63;;;15.80;46.80;;;;;;4965274;28;44989;-61
2023/03/03 06:31:30;;;;;;;5.10;3.20;;;15.80;46.80;;;;;;4941125;28;45292;-59
2023/03/03 06:33:56;;;;;;;4.30;3.20;;;15.80;46.80;;;;;;4954152;28;45445;-61
2023/03/03 06:36:22;;;;;;;4.78;2.97;;;15.80;46.80;;;;;;4941334;28;46906;-61
2023/03/03 06:38:48;;;;;;;5.10;3.20;;;15.70;46.80;;;;;;4963928;28;45257;-63
2023/03/03 06:41:13;;;;;;;5.25;3.38;;;15.80;46.80;;;;;;4953600;28;45232;-60
2023/03/03 06:43:39;;;;;;;5.35;3.15;;;15.80;46.70;;;;;;4953259;28;45339;-60
2023/03/03 06:46:04;;;;;;;4.45;3.08;;;15.80;46.70;;;;;;4968408;28;44923;-60
2023/03/03 06:48:30;;;;;;;4.00;2.97;;;15.90;46.80;;;;;;4952100;28;44986;-58
2023/03/03 06:50:57;;;;;;;4.70;3.33;;;16.00;46.60;;;;;;4959306;28;45268;-60
2023/03/03 06:53:24;;;;;;;4.50;3.55;;;16.20;46.50;;;;;;4957599;28;45905;-60
2023/03/03 06:55:50;;;;;;;4.55;3.22;;;16.30;46.20;;;;;;4942677;28;45190;-60
2023/03/03 06:58:20;;;;;;;4.43;3.10;;;16.50;45.90;;;;;;4960542;28;45149;-60
2023/03/03 07:00:53;;;;;;;3.83;3.00;;;16.70;45.60;;;;;;4951969;28;45251;-60
2023/03/03 07:03:22;;;;;;;3.92;2.97;;;16.90;45.30;;;;;;4949756;28;45241;-61
2023/03/03 07:05:47;;;;;;;4.53;3.08;;;17.10;45.10;;;;;;4956516;28;45351;-60
2023/03/03 07:08:15;;;;;;;4.57;3.13;;;17.30;45.00;;;;;;4941922;28;45029;-61
2023/03/03 07:10:41;;;;;;;4.20;2.92;;;17.50;44.80;;;;;;4945351;28;45097;-58
2023/03/03 07:13:26;;;;;;;3.80;2.83;;;17.70;44.60;;;;;;4943766;28;45058;-62
2023/03/03 07:15:53;;;;;;;3.63;2.58;;;17.80;44.30;;;;;;4944274;28;44981;-57
2023/03/03 07:18:45;;;;;;;;;;;18.00;44.30;;;;;;4953593;28;45031;-60
2023/03/03 07:21:14;;;;;;;;;;;18.10;44.00;;;;;;4937576;28;45158;-60
2023/03/03 07:23:43;;;;;;;;;;;18.30;43.80;;;;;;4964940;28;46325;-61
2023/03/03 07:26:10;;;;;;;;;;;18.50;43.70;;;;;;4955098;28;45108;-63
2023/03/03 07:28:35;;;;;;;;;;;18.60;43.50;;;;;;4958051;28;45033;-61
2023/03/03 07:31:03;;;;;;;;;;;18.80;43.30;;;;;;4944861;28;45043;-61
2023/03/03 07:33:41;;;;;;;;;;;18.90;43.20;;;;;;4955447;28;45148;-63
2023/03/03 07:36:21;;;;;;;;;;;19.00;43.00;;;;;;4951713;28;44964;-60
2023/03/03 07:38:49;;;;;;;;;;;19.20;43.00;;;;;;4957044;28;45016;-60
2023/03/03 07:41:24;;;;;;;;;;;19.30;42.80;;;;;;4953149;28;45212;-65
2023/03/03 07:43:53;;;;;;;;;;;19.40;42.70;;;;;;4961830;28;46009;-61
2023/03/03 07:46:23;;;;;;;;;;;19.40;42.60;;;;;;4963986;28;45270;-62
2023/03/03 07:48:49;;;;;;;;;;;19.40;42.90;;;;;;4925809;28;45057;-61
2023/03/03 07:51:18;;;;;;;;;;;19.50;42.90;;;;;;4956012;28;45038;-58
2023/03/03 07:53:43;;;;;;;;;;;19.60;42.80;;;;;;4967823;28;46479;-61
2023/03/03 07:56:16;;;;;;;;;;;19.70;42.70;;;;;;4952685;28;45081;-59
2023/03/03 07:58:42;;;;;;;;;;;19.90;42.70;;;;;;4957121;28;44812;-60
2023/03/03 08:01:26;;;;;;;;;;;20.00;42.50;;;;;;4966740;28;46051;-61
2023/03/03 08:03:51;;;;;;;;;;;20.10;42.40;;;;;;4941659;28;47085;-60
2023/03/03 08:06:28;;;;;;;;;;;20.20;42.30;;;;;;4964109;28;44990;-60
2023/03/03 08:08:54;;;;;;;;;;;20.30;42.10;;;;;;4923799;28;45107;-60
2023/03/03 08:11:19;;;;;;;;;;;20.40;42.00;;;;;;4954705;28;45021;-57
2023/03/03 08:13:45;;;;;;;;;;;20.60;42.00;;;;;;4959695;28;46657;-62
2023/03/03 08:16:10;;;;;;;;;;;20.60;41.90;;;;;;4964236;28;44851;-62
2023/03/03 08:18:48;;;;;;;4.68;1.80;;;20.70;41.80;;;;;;4952083;28;45195;-62
2023/03/03 08:21:19;;;;;;;3.22;1.90;;;20.90;42.10;;;;;;4960435;28;45218;-59
2023/03/03 08:23:48;;;;;;;2.13;1.92;;;21.00;42.00;;;;;;4941058;28;47232;-59
2023/03/03 08:26:13;;;;;;;3.13;2.20;;;21.00;42.60;;;;;;4959558;28;45293;-60
2023/03/03 08:28:39;;;;;;;3.28;2.60;;;21.10;41.90;;;;;;4951862;28;47551;-61
2023/03/03 08:31:04;;;;;;;4.25;2.80;;;21.20;41.90;;;;;;4942062;28;45633;-60
2023/03/03 08:33:30;;;;;;;2.92;2.42;;;21.20;41.80;;;;;;4959546;28;45333;-61
2023/03/03 08:35:55;;;;;;;3.90;2.70;;;21.30;41.80;;;;;;4967578;28;45193;-61
2023/03/03 08:38:21;;;;;;;3.03;2.47;;;21.30;41.70;;;;;;4940249;28;45802;-60
2023/03/03 08:40:47;;;;;;;3.63;2.78;;;21.40;42.30;;;;;;4938826;28;45361;-61
2023/03/03 08:43:17;;;;;;;4.20;2.80;;;21.40;41.60;;;;;;4940429;28;46358;-61
2023/03/03 08:45:46;;;;;;;3.47;2.67;;;21.40;41.60;;;;;;4947903;28;45067;-58
2023/03/03 08:48:12;;;;;;;3.15;2.55;;;21.50;41.40;;;;;;4954173;28;44721;-59
2023/03/03 08:50:37;;;;;;;4.57;2.70;;;21.50;41.50;;;;;;4946641;28;47489;-60
2023/03/03 08:53:03;;;;;;;4.05;2.67;;;21.60;41.50;;;;;;4962448;28;45107;-62
2023/03/03 08:55:29;;;;;;;4.18;2.63;;;21.60;41.50;;;;;;4944177;28;44971;-57
2023/03/03 08:57:55;;;;;;;3.33;2.65;;;21.60;41.40;;;;;;4954400;28;44656;-59
2023/03/03 09:00:20;;;;;;;5.18;2.58;;;21.80;41.40;;;;;;4962739;28;45077;-63
2023/03/03 09:02:46;;;;;;;3.58;2.63;;;21.80;41.40;;;;;;4945333;28;45785;-58
2023/03/03 09:05:12;;;;;;;2.40;2.20;;;21.90;41.30;;;;;;4945694;28;44900;-61
2023/03/03 09:07:38;;;;;;;2.92;2.20;;;22.00;41.20;;;;;;4945097;28;44993;-60
2023/03/03 09:10:04;;;;;;;4.43;2.15;;;22.10;41.20;;;;;;4960285;28;45227;-61
2023/03/03 09:12:38;;;;;;;2.30;2.10;;;22.10;41.10;;;;;;4946030;28;45166;-60
2023/03/03 09:15:12;;;;;;;2.60;2.30;;;22.20;41.00;;;;;;4937315;28;44757;-62
2023/03/03 09:17:37;;;;;;;3.95;2.47;;;22.30;40.70;;;;;;4965708;28;45225;-61
2023/03/03 09:20:27;;;;;;;3.72;2.25;;;22.40;40.90;;;;;;4955440;28;47834;-58
2023/03/03 09:22:53;;;;;;;3.20;2.47;;;22.40;40.40;;;;;;4983898;28;45382;-57
2023/03/03 09:25:32;;;;;;;3.63;2.50;;;22.40;40.80;;;;;;4978381;28;45249;-54
2023/03/03 09:27:58;;;;;;;3.40;2.58;;;22.50;40.70;;;;;;4961823;28;44940;-60
2023/03/03 09:30:38;;;;;;;3.20;2.42;;;22.50;40.80;;;;;;4960406;28;45136;-59
2023/03/03 09:33:21;;;;;;;2.65;2.35;;;22.60;40.70;;;;;;4975586;28;45635;-61
2023/03/03 09:35:47;;;;;;;2.50;2.03;;;22.60;40.50;;;;;;4945248;28;45011;-57
2023/03/03 09:38:24;;;;;;;3.25;2.65;;;22.60;40.60;;;;;;4937502;28;45166;-57
2023/03/03 09:41:08;;;;;;;3.03;2.38;;;22.60;40.60;;;;;;4963404;28;45014;-59
2023/03/03 09:44:06;;;;;;;2.67;2.15;;;22.70;40.40;;;;;;4959692;28;45767;-58
2023/03/03 09:46:47;;;;;;;4.63;2.70;;;22.80;40.30;;;;;;4929565;28;44762;-60
2023/03/03 09:49:32;;;;;;;2.88;2.45;;;22.80;40.50;;;;;;4929947;28;45213;-60
2023/03/03 09:52:19;;;;;;;2.83;2.00;;;22.80;40.30;;;;;;4961174;28;44830;-60
2023/03/03 09:54:58;;;;;;;2.97;2.30;;;22.80;40.20;;;;;;4974023;28;46220;-61
2023/03/03 09:57:52;;;;;;;3.30;2.42;;;22.90;41.00;;;;;;4959721;28;45173;-60
2023/03/03 10:00:26;;;;;;;3.20;2.38;;;22.90;40.30;;;;;;4975202;28;48151;-61
2023/03/03 10:03:17;;;;;;;3.20;2.60;;;23.00;40.50;;;;;;4977260;28;45121;-61
2023/03/03 10:05:52;;;;;;;2.50;2.20;;;23.00;40.40;;;;;;4971668;28;45344;-60
2023/03/03 10:08:37;;;;;;;2.33;2.13;;;23.00;40.40;;;;;;4945900;28;48023;-60
2023/03/03 10:11:25;;;;;;;3.47;2.50;;;23.10;40.30;;;;;;4957902;28;45866;-61
2023/03/03 10:14:04;;;;;;;4.10;2.28;;;23.10;40.10;;;;;;4959360;28;45406;-61
2023/03/03 10:16:43;;;;;;;2.72;2.10;;;23.20;40.30;;;;;;4959221;28;45953;-58
2023/03/03 10:19:29;;;;;;;3.10;2.30;;;23.20;40.00;;;;;;4963462;28;45007;-59
2023/03/03 10:22:13;;;;;;;2.78;2.47;;;23.30;40.00;;;;;;4976916;28;44941;-61
2023/03/03 10:25:00;;;;;;;2.40;1.88;;;23.30;40.10;;;;;;4958677;28;45431;-60
2023/03/03 10:27:48;;;;;;;2.78;2.10;;;23.30;40.10;;;;;;4920191;28;45215;-60
2023/03/03 10:30:23;;;;;;;2.30;2.00;;;23.40;39.90;;;;;;4973233;28;45245;-60
2023/03/03 10:33:00;;;;;;;2.80;2.05;;;23.40;40.10;;;;;;4943382;28;44901;-60
2023/03/03 10:35:29;;;;;;;2.50;2.00;;;23.40;40.10;;;;;;4961266;28;45529;-61
2023/03/03 10:38:04;;;;;;;2.83;2.15;;;23.50;40.10;;;;;;4960263;28;45344;-61
2023/03/03 10:40:31;;;;;;;4.00;2.45;;;23.50;40.00;;;;;;4960401;28;45220;-60
2023/03/03 10:43:40;;;;;;;2.83;2.30;;;23.60;40.10;;;;;;4978528;28;45113;-62
2023/03/03 10:46:36;;;;;;;2.53;2.20;;;23.60;39.80;;;;;;4962354;28;45258;-63
2023/03/03 10:49:08;;;;;;;4.38;2.03;;;23.60;40.50;;;;;;4945881;28;46306;-62
2023/03/03 10:51:40;;;;;;;2.35;1.88;;;23.60;39.90;;;;;;4972962;28;45313;-60
2023/03/03 10:54:40;;;;;;;2.10;1.80;;;23.70;40.00;;;;;;4957065;28;45019;-63
2023/03/03 10:57:27;;;;;;;2.95;2.00;;;23.70;39.80;;;;;;4979135;28;45129;-61
2023/03/03 11:00:32;;;;;;;2.92;2.30;;;23.80;39.80;;;;;;4970272;28;45562;-59
2023/03/03 11:03:28;;;;;;;2.47;2.03;;;23.80;39.70;;;;;;4959999;28;45174;-63
2023/03/03 11:05:57;;;;;;;3.22;2.28;;;23.80;39.70;;;;;;4973602;28;44892;-61
2023/03/03 11:08:53;;;;;;;2.20;1.95;;;23.90;40.00;;;;;;4945785;28;45889;-61
2023/03/03 11:11:42;;;;;;;2.65;2.05;;;23.90;39.60;;;;;;4964355;28;45293;-60
2023/03/03 11:14:12;;;;;;;4.18;2.30;;;23.90;39.60;;;;;;4945367;28;45606;-56
2023/03/03 11:17:17;;;;;;;3.17;2.28;;;23.90;39.60;;;;;;4952564;28;44729;-57
2023/03/03 11:19:52;;;;;;;3.35;2.15;;;24.00;39.30;;;;;;4951028;28;45397;-58
2023/03/03 11:22:33;;;;;;;2.88;2.10;;;24.00;39.60;;;;;;4970616;28;45453;-58
2023/03/03 11:25:19;;;;;;;3.38;2.65;;;24.00;39.50;;;;;;4951404;28;45402;-60
2023/03/03 11:28:39;;;;;;;2.83;2.20;;;24.00;39.50;;;;;;4969326;28;45492;-59
2023/03/03 11:31:43;;;;;;;2.28;2.05;;;24.10;39.20;;;;;;4872859;28;45527;-62
2023/03/03 11:34:30;;;;;;;2.33;2.13;;;24.10;39.50;;;;;;4906238;28;45671;-60
2023/03/03 11:37:10;;;;;;;2.92;2.08;;;24.00;39.50;;;;;;4966777;28;44899;-59
2023/03/03 11:39:36;;;;;;;3.38;2.53;;;23.90;39.50;;;;;;4935294;28;45715;-59
2023/03/03 11:42:25;;;;;;;2.88;2.22;;;23.90;39.80;;;;;;4966538;28;44959;-60
2023/03/03 11:44:58;;;;;;;3.08;2.30;;;23.90;39.50;;;;;;4966799;28;45623;-60
2023/03/03 11:47:33;;;;;;;;;;;24.00;39.70;;;;;;4968368;28;45040;-59
2023/03/03 11:50:23;;;;;;;3.30;2.40;;;23.90;39.30;;;;;;4969794;28;45321;-61
2023/03/03 11:53:01;;;;;;;3.28;2.30;;;24.00;39.40;;;;;;4932694;28;45341;-60
2023/03/03 11:55:30;;;;;;;3.70;2.13;;;24.00;39.50;;;;;;4968617;28;45097;-59
2023/03/03 11:58:08;;;;;;;2.35;1.92;;;24.10;39.60;;;;;;4950657;28;45610;-57
2023/03/03 12:00:37;;;;;;;2.10;1.90;;;24.00;39.50;;;;;;4962900;28;45225;-61
2023/03/03 12:03:19;;;;;;;2.80;2.17;;;24.10;39.50;;;;;;4942584;28;44988;-60
2023/03/03 12:05:55;;;;;;;2.38;1.95;;;24.20;39.40;;;;;;4950805;28;45525;-61
2023/03/03 12:08:35;;;;;;;2.95;2.15;;;24.20;39.50;;;;;;4964530;28;44971;-59
2023/03/03 12:11:21;;;;;;;2.40;2.00;;;24.20;39.50;;;;;;4947871;28;44829;-61
2023/03/03 12:14:25;;;;;;;2.97;2.40;;;24.10;39.40;;;;;;4938322;28;45528;-60
2023/03/03 12:17:00;;;;;;;3.45;2.30;;;24.00;39.60;;;;;;4964836;28;47046;-59
2023/03/03 12:19:38;;;;;;;2.42;2.03;;;24.00;39.80;;;;;;4930911;28;45741;-59
2023/03/03 12:22:30;;;;;;;2.60;1.90;;;24.00;39.80;;;;;;4948410;28;48486;-60
2023/03/03 12:25:07;;;;;;;2.58;2.22;;;24.00;39.80;;;;;;4955626;28;45098;-59
2023/03/03 12:27:59;;;;;;;2.70;1.92;;;24.10;39.90;;;;;;4966290;28;45696;-58
2023/03/03 12:31:06;;;;;;;2.53;2.00;;;24.20;39.60;;;;;;4946971;28;45695;-59
2023/03/03 12:33:47;;;;;;;2.25;2.00;;;24.20;39.50;;;;;;4931622;28;45594;-59
2023/03/03 12:36:37;;;;;;;3.38;1.88;;;24.30;39.80;;;;;;4951090;28;44849;-57
2023/03/03 12:39:24;;;;;;;2.15;1.60;;;24.30;39.60;;;;;;4969751;28;45182;-57
2023/03/03 12:42:00;;;;;;;2.35;1.88;;;24.30;39.60;;;;;;4965578;28;44986;-60
2023/03/03 12:44:39;;;;;;;2.92;2.25;;;24.20;39.60;;;;;;4952330;28;45147;-58
2023/03/03 12:47:18;;;;;;;5.07;2.08;;;24.10;39.90;;;;;;4965815;28;44960;-63
2023/03/03 12:50:07;;;;;;;2.53;1.90;;;24.10;40.00;;;;;;4946752;28;45405;-60
2023/03/03 12:53:05;;;;;;;2.50;1.98;;;24.10;40.00;;;;;;4965865;28;46084;-62
2023/03/03 12:55:39;;;;;;;2.50;2.10;;;24.10;40.00;;;;;;4934473;28;45009;-61
2023/03/03 12:58:19;;;;;;;2.63;2.03;;;24.20;40.00;;;;;;4944778;28;45264;-60
2023/03/03 13:00:50;;;;;;;2.28;1.98;;;24.20;39.90;;;;;;4950051;28;45995;-61
2023/03/03 13:03:40;;;;;;;6.60;1.85;;;24.30;39.90;;;;;;4949467;28;46148;-58
2023/03/03 13:06:38;;;;;;;2.95;2.20;;;24.30;39.80;;;;;;4955750;28;45569;-58
2023/03/03 13:09:24;;;;;;;2.22;1.80;;;24.40;39.80;;;;;;4934550;28;45378;-61
2023/03/03 13:12:11;;;;;;;2.80;2.20;;;24.40;39.70;;;;;;4954855;28;45321;-61
2023/03/03 13:14:49;;;;;;;1.73;1.60;;;24.30;39.70;;;;;;4948852;28;45044;-60
2023/03/03 13:17:22;;;;;;;1.88;1.70;;;24.30;40.00;;;;;;4968541;28;45099;-61
2023/03/03 13:19:48;;;;;;;;;;;24.20;40.10;;;;;;4952713;28;45283;-59
2023/03/03 13:22:38;;;;;;;2.70;2.05;;;24.20;40.20;;;;;;4966953;28;46087;-62
2023/03/03 13:25:34;;;;;;;1.83;1.70;;;24.20;40.20;;;;;;4916964;28;45408;-61
2023/03/03 13:28:18;;;;;;;1.95;1.75;;;24.30;40.20;;;;;;4967661;28;45091;-59
2023/03/03 13:30:47;;;;;;;4.05;2.22;;;24.30;40.20;;;;;;4949165;28;45338;-61
2023/03/03 13:33:22;;;;;;;4.05;1.83;;;24.30;40.20;;;;;;4966263;28;45488;-60
2023/03/03 13:36:07;;;;;;;2.97;2.10;;;24.30;40.10;;;;;;4939283;28;45457;-60
2023/03/03 13:38:41;;;;;;;3.88;1.85;;;24.30;40.10;;;;;;4920204;28;45502;-62
2023/03/03 13:41:20;;;;;;;2.22;1.75;;;24.30;40.20;;;;;;4934492;28;45154;-59
2023/03/03 13:43:59;;;;;;;2.33;2.10;;;24.30;40.20;;;;;;4949720;28;46877;-61
2023/03/03 13:46:54;;;;;;;2.58;1.90;;;24.30;40.20;;;;;;4938859;28;45491;-61
2023/03/03 13:49:26;;;;;;;2.33;1.80;;;24.30;40.20;;;;;;4939062;28;46248;-60
2023/03/03 13:52:05;;;;;;;2.80;1.90;;;24.30;40.30;;;;;;4948708;28;45022;-61
2023/03/03 13:55:03;;;;;;;2.42;2.10;;;24.40;40.40;;;;;;4964167;28;46053;-61
2023/03/03 13:57:59;;;;;;;2.10;1.90;;;24.40;40.40;;;;;;4948485;28;45356;-60
2023/03/03 14:00:42;;;;;;;2.33;1.88;;;24.40;40.40;;;;;;4954961;28;44973;-58
2023/03/03 14:03:29;;;;;;;3.10;2.20;;;24.40;40.40;;;;;;4913676;28;45075;-60
2023/03/03 14:06:18;;;;;;;3.03;2.10;;;24.40;40.40;;;;;;4948473;28;46148;-61
2023/03/03 14:09:05;;;;;;;1.90;1.70;;;24.40;40.40;;;;;;4957818;28;45593;-57
2023/03/03 14:11:37;;;;;;;1.63;1.52;;;24.40;40.40;;;;;;4956164;28;45633;-61
2023/03/03 14:14:21;;;;;;;1.88;1.60;;;24.40;40.40;;;;;;4937389;28;44958;-57
2023/03/03 14:17:02;;;;;;;2.55;2.00;;;24.40;40.40;;;;;;4951571;28;47397;-61
2023/03/03 14:19:46;;;;;;;5.30;2.30;;;24.40;40.40;;;;;;4972029;28;45698;-59
2023/03/03 14:22:25;;;;;;;2.38;1.75;;;24.40;40.40;;;;;;4954460;28;45850;-59
2023/03/03 14:25:01;;;;;;;1.77;1.67;;;24.40;40.40;;;;;;4949463;28;45138;-59
2023/03/03 14:27:39;;;;;;;2.28;1.75;;;24.50;40.40;;;;;;4954226;28;45148;-60
2023/03/03 14:30:24;;;;;;;3.30;1.67;;;24.50;40.40;;;;;;4934390;28;45610;-64
2023/03/03 14:33:08;;;;;;;2.38;1.90;;;24.40;40.40;;;;;;4940215;28;45480;-61
2023/03/03 14:35:36;;;;;;;3.00;2.20;;;24.50;40.40;;;;;;4969124;28;45173;-61
2023/03/03 14:38:07;;;;;;;3.53;2.10;;;24.40;40.40;;;;;;4969769;28;45524;-61
2023/03/03 14:40:34;;;;;;;2.00;1.80;;;24.50;40.40;;;;;;4966962;28;45625;-60
2023/03/03 14:43:01;;;;;;;2.35;1.90;;;24.50;40.40;;;;;;4946735;28;45465;-58
2023/03/03 14:45:38;;;;;;;2.60;2.10;;;24.40;40.40;;;;;;4958929;28;45328;-57
2023/03/03 14:48:20;;;;;;;3.13;1.88;;;24.50;40.40;;;;;;4952303;28;46107;-61
2023/03/03 14:50:51;;;;;;;2.40;1.80;;;24.50;40.40;;;;;;4938788;28;45741;-60
2023/03/03 14:53:17;;;;;;;2.38;2.00;;;24.50;40.40;;;;;;4950436;28;45417;-58
2023/03/03 14:55:43;;;;;;;2.72;1.80;;;24.50;40.40;;;;;;4970260;28;45578;-61
2023/03/03 14:58:27;;;;;;;2.42;2.00;;;24.50;40.50;;;;;;4954317;28;46220;-60
2023/03/03 15:01:18;;;;;;;;;;;24.50;40.50;;;;;;4969901;28;45637;-60
2023/03/03 15:03:58;;;;;;;2.22;1.75;;;24.50;40.40;;;;;;4933029;28;46110;-63
2023/03/03 15:06:46;;;;;;;1.70;1.60;;;24.50;40.50;;;;;;4952705;28;45092;-59
2023/03/03 15:09:37;;;;;;;2.55;2.20;;;24.50;40.40;;;;;;4971095;28;45661;-59
2023/03/03 15:12:16;;;;;;;5.90;2.53;;;24.40;39.40;;;;;;4952297;28;44914;-59
2023/03/03 15:14:44;;;;;;;5.68;2.60;;;24.30;39.30;;;;;;4969242;28;45474;-61
2023/03/03 15:17:37;;;;;;;5.35;2.25;;;24.10;39.90;;;;;;4953203;28;45393;-58
2023/03/03 15:20:36;;;;;;;3.45;2.65;;;24.00;39.90;;;;;;4951134;28;45178;-56
2023/03/03 15:23:30;;;;;;;3.17;2.25;;;23.90;40.20;;;;;;4954594;28;45865;-59
2023/03/03 15:26:09;;;;;;;2.30;1.88;;;23.80;40.20;;;;;;4953309;28;45270;-59
2023/03/03 15:28:58;;;;;;;4.25;2.03;;;23.80;40.60;;;;;;4960811;28;45481;-56
2023/03/03 15:31:52;;;;;;;3.60;2.58;;;23.70;40.50;;;;;;4954313;28;46062;-60
2023/03/03 15:34:32;;;;;;;3.08;2.15;;;23.70;40.60;;;;;;4956396;28;44863;-60
2023/03/03 15:37:07;;;;;;;2.22;1.88;;;23.50;40.60;;;;;;4940735;28;45005;-58
2023/03/03 15:39:58;;;;;;;3.20;2.17;;;23.50;40.70;;;;;;4951079;28;45924;-60
2023/03/03 15:42:34;;;;;;;2.67;2.17;;;23.50;40.70;;;;;;4968557;28;45645;-61
2023/03/03 15:45:21;;;;;;;4.32;2.20;;;23.40;40.80;;;;;;4966470;28;44984;-61
2023/03/03 15:47:56;;;;;;;4.75;2.35;;;23.30;40.90;;;;;;4967060;28;45522;-62
2023/03/03 15:50:41;;;;;;;4.45;2.30;;;23.20;41.00;;;;;;4936170;28;45570;-58
2023/03/03 15:53:19;;;;;;;3.38;2.35;;;23.20;41.00;;;;;;4967624;28;46280;-58
2023/03/03 15:55:46;;;;;;;3.47;2.58;;;23.10;41.10;;;;;;4949333;28;45572;-60
2023/03/03 15:58:49;;;;;;;3.92;2.25;;;23.00;41.20;;;;;;4949701;28;44923;-58
2023/03/03 16:01:24;;;;;;;3.53;2.47;;;23.00;41.30;;;;;;4952404;28;48717;-59
2023/03/03 16:03:58;;;;;;;5.10;2.25;;;22.90;41.40;;;;;;4946967;28;45742;-59
2023/03/03 16:06:37;;;;;;;4.15;2.00;;;22.80;41.50;;;;;;4936146;28;45872;-59
2023/03/03 16:09:09;;;;;;;2.28;1.95;;;22.80;41.70;;;;;;4949581;28;44938;-59
2023/03/03 16:12:00;;;;;;;3.33;1.98;;;22.70;41.80;;;;;;4967928;28;45127;-57
2023/03/03 16:14:35;;;;;;;2.55;1.95;;;22.60;41.90;;;;;;4962751;28;46425;-57
2023/03/03 16:17:36;;;;;;;3.65;2.28;;;22.60;42.00;;;;;;4951805;28;45623;-58
2023/03/03 16:20:16;;;;;;;2.50;2.03;;;22.50;42.10;;;;;;4939438;28;45226;-58
2023/03/03 16:23:14;;;;;;;2.80;2.05;;;22.40;42.00;;;;;;4937107;28;44995;-58
2023/03/03 16:25:54;;;;;;;4.35;2.20;;;22.40;42.10;;;;;;4919896;28;45083;-56
2023/03/03 16:28:34;;;;;;;3.40;2.33;;;22.30;42.20;;;;;;4954673;28;45807;-56
2023/03/03 16:31:16;;;;;;;3.85;2.55;;;22.30;42.40;;;;;;4949234;28;45974;-61
2023/03/03 16:33:42;;;;;;;3.40;2.20;;;22.20;42.40;;;;;;4957671;28;45758;-55
2023/03/03 16:36:31;;;;;;;5.70;2.33;;;22.10;42.30;;;;;;4958282;28;45291;-61
2023/03/03 16:39:19;;;;;;;3.25;2.47;;;22.10;42.50;;;;;;4931474;28;46501;-60
2023/03/03 16:41:44;;;;;;;3.45;2.17;;;22.10;42.60;;;;;;4952336;28;45715;-60
2023/03/03 16:44:34;;;;;;;3.08;1.98;;;21.90;42.60;;;;;;4966507;28;45866;-58
2023/03/03 16:47:48;;;;;;;4.03;2.47;;;21.90;42.80;;;;;;4937969;28;46021;-62
2023/03/03 16:50:35;;;;;;;2.63;2.10;;;21.80;42.80;;;;;;4899894;28;45095;-59
2023/03/03 16:53:26;;;;;;;2.42;2.20;;;21.80;43.00;;;;;;4949152;28;45635;-59
2023/03/03 16:56:22;;;;;;;4.90;1.90;;;21.70;43.00;;;;;;4968774;28;45658;-61
2023/03/03 16:59:27;;;;;;;2.88;2.22;;;21.70;43.00;;;;;;4941186;28;45571;-59
2023/03/03 17:02:02;;;;;;;3.35;2.17;;;21.60;43.20;;;;;;4954613;28;45360;-59
2023/03/03 17:04:46;;;;;;;2.30;1.90;;;21.50;43.20;;;;;;4953339;28;45449;-63
2023/03/03 17:07:26;;;;;;;3.03;2.13;;;21.50;43.30;;;;;;4967613;28;44926;-59
2023/03/03 17:10:16;;;;;;;3.30;2.53;;;21.40;43.30;;;;;;4928027;28;45572;-60
2023/03/03 17:13:05;;;;;;;2.65;2.10;;;21.40;43.30;;;;;;4952055;28;45289;-57
2023/03/03 17:15:31;;;;;;;2.53;2.10;;;21.30;43.30;;;;;;4950761;28;45019;-59
2023/03/03 17:18:15;;;;;;;2.83;2.30;;;21.30;43.40;;;;;;4970503;28;45009;-59
2023/03/03 17:20:41;;;;;;;2.90;2.20;;;21.30;43.50;;;;;;4969397;28;45384;-59
2023/03/03 17:23:18;;;;;;;2.97;2.17;;;21.20;43.50;;;;;;4970471;28;45744;-60
2023/03/03 17:26:05;;;;;;;3.08;2.28;;;21.20;43.60;;;;;;4955005;28;44979;-57
2023/03/03 17:28:34;;;;;;;3.70;2.00;;;21.10;43.50;;;;;;4971996;28;45102;-59
2023/03/03 17:31:11;;;;;;;2.47;2.08;;;21.10;43.60;;;;;;4954638;28;45529;-59
2023/03/03 17:33:44;;;;;;;3.10;2.20;;;21.00;43.70;;;;;;4949057;28;45026;-59
2023/03/03 17:36:22;;;;;;;2.63;2.20;;;21.00;43.70;;;;;;4954063;28;45597;-61
2023/03/03 17:39:27;;;;;;;2.78;2.17;;;21.00;43.80;;;;;;4971610;28;44953;-59